sensor_id;sensor_type;location;lat;lon;timestamp;temperature;humidity
28747;DHT22;15903;49.008;8.394;2023-02-28T00:00:12;2.10;92.70
28747;DHT22;15903;49.008;8.394;2023-02-28T00:02:42;2.10;92.90
28747;DHT22;15903;49.008;8.394;2023-02-28T00:05:09;2.20;92.70
28747;DHT22;15903;49.008;8.394;2023-02-28T00:07:36;2.10;92.90
28747;DHT22;15903;49.008;8.394;2023-02-28T00:10:02;2.10;93.10
28747;DHT22;15903;49.008;8.394;2023-02-28T00:12:28;2.20;92.90
28747;DHT22;15903;49.008;8.394;2023-02-28T00:14:53;2.20;92.90
28747;DHT22;15903;49.008;8.394;2023-02-28T00:17:19;2.10;92.70
28747;DHT22;15903;49.008;8.394;2023-02-28T00:19:50;2.20;92.90
28747;DHT22;15903;49.008;8.394;2023-02-28T00:22:18;2.10;92.90
28747;DHT22;15903;49.008;8.394;2023-02-28T00:24:44;2.10;92.80
28747;DHT22;15903;49.008;8.394;2023-02-28T00:27:10;2.10;93.10
28747;DHT22;15903;49.008;8.394;2023-02-28T00:29:36;2.00;93.20
28747;DHT22;15903;49.008;8.394;2023-02-28T00:32:01;2.00;93.00
28747;DHT22;15903;49.008;8.394;2023-02-28T00:34:27;2.00;93.00
28747;DHT22;15903;49.008;8.394;2023-02-28T00:36:53;2.00;93.30
28747;DHT22;15903;49.008;8.394;2023-02-28T00:39:18;2.00;93.30
28747;DHT22;15903;49.008;8.394;2023-02-28T00:41:44;1.90;93.50
28747;DHT22;15903;49.008;8.394;2023-02-28T00:44:09;1.90;93.70
28747;DHT22;15903;49.008;8.394;2023-02-28T00:46:35;2.00;93.50
28747;DHT22;15903;49.008;8.394;2023-02-28T00:49:01;1.90;93.60
28747;DHT22;15903;49.008;8.394;2023-02-28T00:51:26;1.90;93.50
28747;DHT22;15903;49.008;8.394;2023-02-28T00:53:52;1.90;93.60
28747;DHT22;15903;49.008;8.394;2023-02-28T00:56:17;1.80;93.90
28747;DHT22;15903;49.008;8.394;2023-02-28T00:58:43;1.80;93.90
28747;DHT22;15903;49.008;8.394;2023-02-28T01:01:08;1.80;93.90
28747;DHT22;15903;49.008;8.394;2023-02-28T01:03:34;1.80;94.00
28747;DHT22;15903;49.008;8.394;2023-02-28T01:06:00;1.90;94.00
28747;DHT22;15903;49.008;8.394;2023-02-28T01:08:26;1.80;94.00
28747;DHT22;15903;49.008;8.394;2023-02-28T01:10:52;1.90;93.90
28747;DHT22;15903;49.008;8.394;2023-02-28T01:13:18;1.90;93.60
28747;DHT22;15903;49.008;8.394;2023-02-28T01:15:55;1.90;93.70
28747;DHT22;15903;49.008;8.394;2023-02-28T01:18:22;1.80;93.70
28747;DHT22;15903;49.008;8.394;2023-02-28T01:20:48;1.80;93.70
28747;DHT22;15903;49.008;8.394;2023-02-28T01:23:14;1.80;93.80
28747;DHT22;15903;49.008;8.394;2023-02-28T01:25:40;1.80;93.50
28747;DHT22;15903;49.008;8.394;2023-02-28T01:28:05;1.80;93.60
28747;DHT22;15903;49.008;8.394;2023-02-28T01:30:32;1.70;93.60
28747;DHT22;15903;49.008;8.394;2023-02-28T01:32:58;1.70;93.70
28747;DHT22;15903;49.008;8.394;2023-02-28T01:35:24;1.70;93.80
28747;DHT22;15903;49.008;8.394;2023-02-28T01:37:50;1.70;93.80
28747;DHT22;15903;49.008;8.394;2023-02-28T01:40:15;1.70;93.80
28747;DHT22;15903;49.008;8.394;2023-02-28T01:42:41;1.70;94.00
28747;DHT22;15903;49.008;8.394;2023-02-28T01:45:26;1.70;94.20
28747;DHT22;15903;49.008;8.394;2023-02-28T01:47:55;1.60;94.10
28747;DHT22;15903;49.008;8.394;2023-02-28T01:50:26;1.60;93.90
28747;DHT22;15903;49.008;8.394;2023-02-28T01:52:54;1.60;93.40
28747;DHT22;15903;49.008;8.394;2023-02-28T01:55:22;1.60;93.40
28747;DHT22;15903;49.008;8.394;2023-02-28T01:57:52;1.50;93.60
28747;DHT22;15903;49.008;8.394;2023-02-28T02:00:23;1.50;93.70
28747;DHT22;15903;49.008;8.394;2023-02-28T02:02:56;1.60;93.80
28747;DHT22;15903;49.008;8.394;2023-02-28T02:05:28;1.50;94.00
28747;DHT22;15903;49.008;8.394;2023-02-28T02:07:58;1.50;94.40
28747;DHT22;15903;49.008;8.394;2023-02-28T02:10:39;1.50;94.30
28747;DHT22;15903;49.008;8.394;2023-02-28T02:13:14;1.40;94.80
28747;DHT22;15903;49.008;8.394;2023-02-28T02:16:11;1.40;94.60
28747;DHT22;15903;49.008;8.394;2023-02-28T02:30:14;1.30;95.70
28747;DHT22;15903;49.008;8.394;2023-02-28T02:33:25;1.30;95.80
28747;DHT22;15903;49.008;8.394;2023-02-28T02:36:14;1.30;96.00
28747;DHT22;15903;49.008;8.394;2023-02-28T02:38:51;1.30;95.90
28747;DHT22;15903;49.008;8.394;2023-02-28T02:44:03;1.20;96.00
28747;DHT22;15903;49.008;8.394;2023-02-28T02:46:43;1.20;96.00
28747;DHT22;15903;49.008;8.394;2023-02-28T02:49:15;1.20;96.10
28747;DHT22;15903;49.008;8.394;2023-02-28T02:51:43;1.20;96.20
28747;DHT22;15903;49.008;8.394;2023-02-28T02:54:29;1.20;96.40
28747;DHT22;15903;49.008;8.394;2023-02-28T02:56:59;1.10;96.70
28747;DHT22;15903;49.008;8.394;2023-02-28T02:59:28;1.10;96.50
28747;DHT22;15903;49.008;8.394;2023-02-28T03:01:59;1.10;96.80
28747;DHT22;15903;49.008;8.394;2023-02-28T03:04:30;1.10;97.10
28747;DHT22;15903;49.008;8.394;2023-02-28T03:06:58;1.00;97.10
28747;DHT22;15903;49.008;8.394;2023-02-28T03:09:25;1.00;97.20
28747;DHT22;15903;49.008;8.394;2023-02-28T03:11:55;1.00;97.40
28747;DHT22;15903;49.008;8.394;2023-02-28T03:22:50;1.00;97.90
28747;DHT22;15903;49.008;8.394;2023-02-28T03:25:48;1.00;97.70
28747;DHT22;15903;49.008;8.394;2023-02-28T03:28:40;1.00;98.00
28747;DHT22;15903;49.008;8.394;2023-02-28T03:31:19;1.00;98.10
28747;DHT22;15903;49.008;8.394;2023-02-28T03:36:42;0.90;98.40
28747;DHT22;15903;49.008;8.394;2023-02-28T03:39:17;0.90;98.60
28747;DHT22;15903;49.008;8.394;2023-02-28T03:41:49;0.80;98.70
28747;DHT22;15903;49.008;8.394;2023-02-28T03:47:03;0.80;98.90
28747;DHT22;15903;49.008;8.394;2023-02-28T03:49:40;0.80;99.20
28747;DHT22;15903;49.008;8.394;2023-02-28T03:52:09;0.80;99.30
28747;DHT22;15903;49.008;8.394;2023-02-28T03:54:41;0.80;99.50
28747;DHT22;15903;49.008;8.394;2023-02-28T03:57:25;0.90;99.10
28747;DHT22;15903;49.008;8.394;2023-02-28T03:59:56;0.90;99.40
28747;DHT22;15903;49.008;8.394;2023-02-28T04:02:24;0.90;99.00
28747;DHT22;15903;49.008;8.394;2023-02-28T04:04:50;1.00;98.90
28747;DHT22;15903;49.008;8.394;2023-02-28T04:07:18;1.00;99.20
28747;DHT22;15903;49.008;8.394;2023-02-28T04:09:44;1.00;99.10
28747;DHT22;15903;49.008;8.394;2023-02-28T04:12:09;1.00;98.90
28747;DHT22;15903;49.008;8.394;2023-02-28T04:14:35;1.00;99.20
28747;DHT22;15903;49.008;8.394;2023-02-28T04:17:00;1.00;99.30
28747;DHT22;15903;49.008;8.394;2023-02-28T04:19:26;1.00;99.60
28747;DHT22;15903;49.008;8.394;2023-02-28T04:21:53;1.00;99.90
28747;DHT22;15903;49.008;8.394;2023-02-28T04:24:21;1.00;99.60
28747;DHT22;15903;49.008;8.394;2023-02-28T04:26:50;1.00;99.80
28747;DHT22;15903;49.008;8.394;2023-02-28T04:29:24;1.00;99.80
28747;DHT22;15903;49.008;8.394;2023-02-28T04:31:50;1.00;99.80
28747;DHT22;15903;49.008;8.394;2023-02-28T04:34:16;1.00;99.90
28747;DHT22;15903;49.008;8.394;2023-02-28T04:36:44;1.00;99.90
28747;DHT22;15903;49.008;8.394;2023-02-28T04:39:11;1.00;99.90
28747;DHT22;15903;49.008;8.394;2023-02-28T04:41:37;1.00;99.90
28747;DHT22;15903;49.008;8.394;2023-02-28T04:44:03;1.10;99.90
28747;DHT22;15903;49.008;8.394;2023-02-28T04:46:28;1.10;99.90
28747;DHT22;15903;49.008;8.394;2023-02-28T04:48:54;1.10;99.90
28747;DHT22;15903;49.008;8.394;2023-02-28T04:51:20;1.10;99.90
28747;DHT22;15903;49.008;8.394;2023-02-28T04:53:47;1.10;99.90
28747;DHT22;15903;49.008;8.394;2023-02-28T04:56:15;1.10;99.90
28747;DHT22;15903;49.008;8.394;2023-02-28T04:58:41;1.10;99.90
28747;DHT22;15903;49.008;8.394;2023-02-28T05:01:27;1.10;99.90
28747;DHT22;15903;49.008;8.394;2023-02-28T05:03:55;1.10;99.90
28747;DHT22;15903;49.008;8.394;2023-02-28T05:06:22;1.10;99.90
28747;DHT22;15903;49.008;8.394;2023-02-28T05:08:49;1.10;99.90
28747;DHT22;15903;49.008;8.394;2023-02-28T05:11:29;1.20;99.90
28747;DHT22;15903;49.008;8.394;2023-02-28T05:13:59;1.20;99.90
28747;DHT22;15903;49.008;8.394;2023-02-28T05:16:24;1.20;99.90
28747;DHT22;15903;49.008;8.394;2023-02-28T05:18:50;1.20;99.90
28747;DHT22;15903;49.008;8.394;2023-02-28T05:21:24;1.20;99.90
28747;DHT22;15903;49.008;8.394;2023-02-28T05:23:51;1.20;99.90
28747;DHT22;15903;49.008;8.394;2023-02-28T05:26:16;1.20;99.90
28747;DHT22;15903;49.008;8.394;2023-02-28T05:28:42;1.20;99.90
28747;DHT22;15903;49.008;8.394;2023-02-28T05:31:10;1.20;99.90
28747;DHT22;15903;49.008;8.394;2023-02-28T05:33:36;1.20;99.90
28747;DHT22;15903;49.008;8.394;2023-02-28T05:36:02;1.20;99.90
28747;DHT22;15903;49.008;8.394;2023-02-28T05:38:27;1.20;99.90
28747;DHT22;15903;49.008;8.394;2023-02-28T05:40:53;1.20;99.90
28747;DHT22;15903;49.008;8.394;2023-02-28T05:43:18;1.30;99.90
28747;DHT22;15903;49.008;8.394;2023-02-28T05:45:44;1.30;99.90
28747;DHT22;15903;49.008;8.394;2023-02-28T05:48:09;1.30;99.90
28747;DHT22;15903;49.008;8.394;2023-02-28T05:50:35;1.20;99.90
28747;DHT22;15903;49.008;8.394;2023-02-28T05:53:01;1.30;99.90
28747;DHT22;15903;49.008;8.394;2023-02-28T05:55:27;1.30;99.90
28747;DHT22;15903;49.008;8.394;2023-02-28T05:57:53;1.30;99.90
28747;DHT22;15903;49.008;8.394;2023-02-28T06:00:18;1.30;99.90
28747;DHT22;15903;49.008;8.394;2023-02-28T06:02:44;1.30;99.90
28747;DHT22;15903;49.008;8.394;2023-02-28T06:05:17;1.20;99.90
28747;DHT22;15903;49.008;8.394;2023-02-28T06:07:44;1.20;99.90
28747;DHT22;15903;49.008;8.394;2023-02-28T06:10:13;1.20;99.90
28747;DHT22;15903;49.008;8.394;2023-02-28T06:12:39;1.20;99.90
28747;DHT22;15903;49.008;8.394;2023-02-28T06:15:07;1.20;99.90
28747;DHT22;15903;49.008;8.394;2023-02-28T06:17:35;1.20;99.90
28747;DHT22;15903;49.008;8.394;2023-02-28T06:20:00;1.20;99.90
28747;DHT22;15903;49.008;8.394;2023-02-28T06:22:26;1.20;99.90
28747;DHT22;15903;49.008;8.394;2023-02-28T06:24:52;1.20;99.90
28747;DHT22;15903;49.008;8.394;2023-02-28T06:27:18;1.20;99.90
28747;DHT22;15903;49.008;8.394;2023-02-28T06:29:45;1.20;99.90
28747;DHT22;15903;49.008;8.394;2023-02-28T06:32:11;1.20;99.90
28747;DHT22;15903;49.008;8.394;2023-02-28T06:34:36;1.20;99.90
28747;DHT22;15903;49.008;8.394;2023-02-28T06:37:02;1.30;99.90
28747;DHT22;15903;49.008;8.394;2023-02-28T06:39:29;1.30;99.90
28747;DHT22;15903;49.008;8.394;2023-02-28T06:41:55;1.30;99.90
28747;DHT22;15903;49.008;8.394;2023-02-28T06:44:21;1.40;99.90
28747;DHT22;15903;49.008;8.394;2023-02-28T06:46:47;1.50;99.90
28747;DHT22;15903;49.008;8.394;2023-02-28T06:49:12;1.60;99.90
28747;DHT22;15903;49.008;8.394;2023-02-28T06:51:40;1.60;99.90
28747;DHT22;15903;49.008;8.394;2023-02-28T06:54:06;1.50;99.90
28747;DHT22;15903;49.008;8.394;2023-02-28T06:56:35;1.50;99.90
28747;DHT22;15903;49.008;8.394;2023-02-28T06:59:00;1.50;99.90
28747;DHT22;15903;49.008;8.394;2023-02-28T07:01:26;1.50;99.90
28747;DHT22;15903;49.008;8.394;2023-02-28T07:03:53;1.50;99.90
28747;DHT22;15903;49.008;8.394;2023-02-28T07:06:23;1.60;99.90
28747;DHT22;15903;49.008;8.394;2023-02-28T07:08:50;1.60;99.90
28747;DHT22;15903;49.008;8.394;2023-02-28T07:11:17;1.60;99.90
28747;DHT22;15903;49.008;8.394;2023-02-28T07:13:43;1.60;99.90
28747;DHT22;15903;49.008;8.394;2023-02-28T07:16:10;1.70;99.90
28747;DHT22;15903;49.008;8.394;2023-02-28T07:18:37;1.70;99.90
28747;DHT22;15903;49.008;8.394;2023-02-28T07:21:04;1.70;99.90
28747;DHT22;15903;49.008;8.394;2023-02-28T07:23:30;1.70;99.90
28747;DHT22;15903;49.008;8.394;2023-02-28T07:25:56;1.80;99.90
28747;DHT22;15903;49.008;8.394;2023-02-28T07:28:21;1.80;99.90
28747;DHT22;15903;49.008;8.394;2023-02-28T07:30:47;1.80;99.90
28747;DHT22;15903;49.008;8.394;2023-02-28T07:33:13;1.90;99.90
28747;DHT22;15903;49.008;8.394;2023-02-28T07:35:39;1.90;99.90
28747;DHT22;15903;49.008;8.394;2023-02-28T07:38:05;1.90;99.90
28747;DHT22;15903;49.008;8.394;2023-02-28T07:40:33;2.00;99.90
28747;DHT22;15903;49.008;8.394;2023-02-28T07:43:00;1.90;99.90
28747;DHT22;15903;49.008;8.394;2023-02-28T07:45:26;1.90;99.90
28747;DHT22;15903;49.008;8.394;2023-02-28T07:47:52;1.90;99.90
28747;DHT22;15903;49.008;8.394;2023-02-28T07:50:18;2.00;99.90
28747;DHT22;15903;49.008;8.394;2023-02-28T07:52:43;2.00;99.90
28747;DHT22;15903;49.008;8.394;2023-02-28T07:55:09;2.00;99.90
28747;DHT22;15903;49.008;8.394;2023-02-28T07:57:35;2.00;99.90
28747;DHT22;15903;49.008;8.394;2023-02-28T08:00:04;2.00;99.90
28747;DHT22;15903;49.008;8.394;2023-02-28T08:02:30;2.10;99.90
28747;DHT22;15903;49.008;8.394;2023-02-28T08:04:55;2.20;99.90
28747;DHT22;15903;49.008;8.394;2023-02-28T08:07:21;2.20;99.90
28747;DHT22;15903;49.008;8.394;2023-02-28T08:09:47;2.10;99.90
28747;DHT22;15903;49.008;8.394;2023-02-28T08:12:12;2.10;99.90
28747;DHT22;15903;49.008;8.394;2023-02-28T08:14:41;2.20;99.90
28747;DHT22;15903;49.008;8.394;2023-02-28T08:17:06;2.20;99.90
28747;DHT22;15903;49.008;8.394;2023-02-28T08:19:32;2.30;99.90
28747;DHT22;15903;49.008;8.394;2023-02-28T08:21:58;2.20;99.90
28747;DHT22;15903;49.008;8.394;2023-02-28T08:24:24;2.30;99.90
28747;DHT22;15903;49.008;8.394;2023-02-28T08:26:50;2.40;99.90
28747;DHT22;15903;49.008;8.394;2023-02-28T08:29:15;2.50;99.90
28747;DHT22;15903;49.008;8.394;2023-02-28T08:31:42;2.60;99.70
28747;DHT22;15903;49.008;8.394;2023-02-28T08:34:09;2.60;99.60
28747;DHT22;15903;49.008;8.394;2023-02-28T08:36:36;2.70;99.30
28747;DHT22;15903;49.008;8.394;2023-02-28T08:39:01;2.80;99.10
28747;DHT22;15903;49.008;8.394;2023-02-28T08:41:27;2.80;99.20
28747;DHT22;15903;49.008;8.394;2023-02-28T08:43:54;2.90;98.80
28747;DHT22;15903;49.008;8.394;2023-02-28T08:46:20;2.90;98.40
28747;DHT22;15903;49.008;8.394;2023-02-28T08:48:45;2.90;98.60
28747;DHT22;15903;49.008;8.394;2023-02-28T08:51:14;2.90;98.40
28747;DHT22;15903;49.008;8.394;2023-02-28T08:53:41;2.90;98.70
28747;DHT22;15903;49.008;8.394;2023-02-28T08:56:12;2.90;98.60
28747;DHT22;15903;49.008;8.394;2023-02-28T08:58:39;3.00;98.50
28747;DHT22;15903;49.008;8.394;2023-02-28T09:01:13;3.00;98.40
28747;DHT22;15903;49.008;8.394;2023-02-28T09:03:39;2.90;98.60
28747;DHT22;15903;49.008;8.394;2023-02-28T09:06:07;2.90;98.40
28747;DHT22;15903;49.008;8.394;2023-02-28T09:08:33;2.90;98.20
28747;DHT22;15903;49.008;8.394;2023-02-28T09:10:59;2.90;98.40
28747;DHT22;15903;49.008;8.394;2023-02-28T09:13:26;2.90;98.20
28747;DHT22;15903;49.008;8.394;2023-02-28T09:15:52;2.90;98.00
28747;DHT22;15903;49.008;8.394;2023-02-28T09:18:19;2.90;98.10
28747;DHT22;15903;49.008;8.394;2023-02-28T09:20:45;2.90;97.90
28747;DHT22;15903;49.008;8.394;2023-02-28T09:23:11;3.00;98.00
28747;DHT22;15903;49.008;8.394;2023-02-28T09:25:38;3.00;97.90
28747;DHT22;15903;49.008;8.394;2023-02-28T09:28:09;3.10;97.50
28747;DHT22;15903;49.008;8.394;2023-02-28T09:30:35;3.10;97.60
28747;DHT22;15903;49.008;8.394;2023-02-28T09:33:00;3.20;97.50
28747;DHT22;15903;49.008;8.394;2023-02-28T09:35:26;3.20;97.80
28747;DHT22;15903;49.008;8.394;2023-02-28T09:37:52;3.20;97.30
28747;DHT22;15903;49.008;8.394;2023-02-28T09:40:19;3.30;97.20
28747;DHT22;15903;49.008;8.394;2023-02-28T09:42:48;3.40;96.60
28747;DHT22;15903;49.008;8.394;2023-02-28T09:45:31;3.40;97.10
28747;DHT22;15903;49.008;8.394;2023-02-28T09:48:04;3.50;96.90
28747;DHT22;15903;49.008;8.394;2023-02-28T09:50:40;3.60;96.50
28747;DHT22;15903;49.008;8.394;2023-02-28T09:53:28;3.70;96.70
28747;DHT22;15903;49.008;8.394;2023-02-28T09:56:04;3.70;96.70
28747;DHT22;15903;49.008;8.394;2023-02-28T09:58:40;3.80;96.50
28747;DHT22;15903;49.008;8.394;2023-02-28T10:01:35;3.90;96.40
28747;DHT22;15903;49.008;8.394;2023-02-28T10:04:15;4.00;96.30
28747;DHT22;15903;49.008;8.394;2023-02-28T10:06:48;4.10;95.80
28747;DHT22;15903;49.008;8.394;2023-02-28T10:09:22;4.00;95.50
28747;DHT22;15903;49.008;8.394;2023-02-28T10:11:50;4.00;95.40
28747;DHT22;15903;49.008;8.394;2023-02-28T10:14:19;4.00;95.40
28747;DHT22;15903;49.008;8.394;2023-02-28T10:19:34;4.00;95.00
28747;DHT22;15903;49.008;8.394;2023-02-28T10:22:23;4.10;94.70
28747;DHT22;15903;49.008;8.394;2023-02-28T10:24:53;4.20;94.60
28747;DHT22;15903;49.008;8.394;2023-02-28T10:27:25;4.30;94.70
28747;DHT22;15903;49.008;8.394;2023-02-28T10:29:56;4.50;94.10
28747;DHT22;15903;49.008;8.394;2023-02-28T10:32:33;4.70;93.70
28747;DHT22;15903;49.008;8.394;2023-02-28T10:35:18;4.70;93.70
28747;DHT22;15903;49.008;8.394;2023-02-28T10:37:56;4.70;92.90
28747;DHT22;15903;49.008;8.394;2023-02-28T10:45:28;4.80;92.40
28747;DHT22;15903;49.008;8.394;2023-02-28T10:47:56;4.80;92.20
28747;DHT22;15903;49.008;8.394;2023-02-28T10:53:37;5.10;92.70
28747;DHT22;15903;49.008;8.394;2023-02-28T10:56:16;5.20;92.50
28747;DHT22;15903;49.008;8.394;2023-02-28T11:01:43;5.40;91.70
28747;DHT22;15903;49.008;8.394;2023-02-28T11:04:33;5.40;91.90
28747;DHT22;15903;49.008;8.394;2023-02-28T11:07:02;5.30;91.20
28747;DHT22;15903;49.008;8.394;2023-02-28T11:09:32;5.20;91.50
28747;DHT22;15903;49.008;8.394;2023-02-28T11:12:00;5.40;91.50
28747;DHT22;15903;49.008;8.394;2023-02-28T11:14:33;5.50;91.10
28747;DHT22;15903;49.008;8.394;2023-02-28T11:17:23;5.50;91.00
28747;DHT22;15903;49.008;8.394;2023-02-28T11:20:01;5.60;90.60
28747;DHT22;15903;49.008;8.394;2023-02-28T11:22:31;5.70;91.20
28747;DHT22;15903;49.008;8.394;2023-02-28T11:25:02;5.90;91.00
28747;DHT22;15903;49.008;8.394;2023-02-28T11:30:00;6.00;90.20
28747;DHT22;15903;49.008;8.394;2023-02-28T11:32:28;5.90;89.40
28747;DHT22;15903;49.008;8.394;2023-02-28T11:35:21;5.90;90.10
28747;DHT22;15903;49.008;8.394;2023-02-28T11:37:48;6.00;89.90
28747;DHT22;15903;49.008;8.394;2023-02-28T11:40:15;5.90;89.80
28747;DHT22;15903;49.008;8.394;2023-02-28T11:45:24;5.80;90.00
28747;DHT22;15903;49.008;8.394;2023-02-28T11:50:53;6.10;90.30
28747;DHT22;15903;49.008;8.394;2023-02-28T11:53:32;6.30;90.00
28747;DHT22;15903;49.008;8.394;2023-02-28T11:56:23;6.40;88.90
28747;DHT22;15903;49.008;8.394;2023-02-28T11:59:04;6.50;87.70
28747;DHT22;15903;49.008;8.394;2023-02-28T12:04:35;6.80;86.40
28747;DHT22;15903;49.008;8.394;2023-02-28T12:07:20;6.70;85.30
28747;DHT22;15903;49.008;8.394;2023-02-28T12:10:10;6.70;85.50
28747;DHT22;15903;49.008;8.394;2023-02-28T12:15:46;6.50;85.30
28747;DHT22;15903;49.008;8.394;2023-02-28T12:18:41;6.50;86.30
28747;DHT22;15903;49.008;8.394;2023-02-28T12:24:12;6.80;85.70
28747;DHT22;15903;49.008;8.394;2023-02-28T12:26:48;7.00;85.70
28747;DHT22;15903;49.008;8.394;2023-02-28T12:29:23;7.00;83.70
28747;DHT22;15903;49.008;8.394;2023-02-28T12:32:21;6.90;83.00
28747;DHT22;15903;49.008;8.394;2023-02-28T12:35:02;6.90;81.80
28747;DHT22;15903;49.008;8.394;2023-02-28T12:37:41;6.80;83.20
28747;DHT22;15903;49.008;8.394;2023-02-28T12:40:23;6.70;82.70
28747;DHT22;15903;49.008;8.394;2023-02-28T12:43:03;6.60;82.50
28747;DHT22;15903;49.008;8.394;2023-02-28T12:45:46;6.70;82.90
28747;DHT22;15903;49.008;8.394;2023-02-28T12:48:18;6.70;83.30
28747;DHT22;15903;49.008;8.394;2023-02-28T12:50:45;6.80;83.30
28747;DHT22;15903;49.008;8.394;2023-02-28T12:53:27;6.80;81.30
28747;DHT22;15903;49.008;8.394;2023-02-28T12:58:36;6.80;81.90
28747;DHT22;15903;49.008;8.394;2023-02-28T13:09:25;7.00;81.60
28747;DHT22;15903;49.008;8.394;2023-02-28T13:11:54;7.00;82.30
28747;DHT22;15903;49.008;8.394;2023-02-28T13:14:36;7.00;81.80
28747;DHT22;15903;49.008;8.394;2023-02-28T13:19:45;7.10;81.10
28747;DHT22;15903;49.008;8.394;2023-02-28T13:24:52;7.10;81.90
28747;DHT22;15903;49.008;8.394;2023-02-28T13:29:51;7.20;82.50
28747;DHT22;15903;49.008;8.394;2023-02-28T13:32:29;7.10;82.00
28747;DHT22;15903;49.008;8.394;2023-02-28T13:47:48;7.10;80.20
28747;DHT22;15903;49.008;8.394;2023-02-28T13:50:31;7.00;80.50
28747;DHT22;15903;49.008;8.394;2023-02-28T13:53:01;7.00;80.70
28747;DHT22;15903;49.008;8.394;2023-02-28T14:03:27;7.30;80.00
28747;DHT22;15903;49.008;8.394;2023-02-28T14:06:26;7.20;79.30
28747;DHT22;15903;49.008;8.394;2023-02-28T14:09:01;7.20;79.70
28747;DHT22;15903;49.008;8.394;2023-02-28T14:11:30;7.20;80.10
28747;DHT22;15903;49.008;8.394;2023-02-28T14:13:56;7.30;79.60
28747;DHT22;15903;49.008;8.394;2023-02-28T14:16:27;7.30;78.70
28747;DHT22;15903;49.008;8.394;2023-02-28T14:19:11;7.30;80.00
28747;DHT22;15903;49.008;8.394;2023-02-28T14:21:43;7.20;77.70
28747;DHT22;15903;49.008;8.394;2023-02-28T14:24:39;7.10;78.50
28747;DHT22;15903;49.008;8.394;2023-02-28T14:35:13;7.50;78.40
28747;DHT22;15903;49.008;8.394;2023-02-28T14:37:42;7.60;78.00
28747;DHT22;15903;49.008;8.394;2023-02-28T14:40:20;7.70;78.00
28747;DHT22;15903;49.008;8.394;2023-02-28T14:42:57;7.80;76.30
28747;DHT22;15903;49.008;8.394;2023-02-28T14:45:24;7.90;76.60
28747;DHT22;15903;49.008;8.394;2023-02-28T14:47:52;7.90;77.70
28747;DHT22;15903;49.008;8.394;2023-02-28T14:50:31;8.00;77.20
28747;DHT22;15903;49.008;8.394;2023-02-28T14:52:58;7.90;76.40
28747;DHT22;15903;49.008;8.394;2023-02-28T14:55:28;8.00;76.80
28747;DHT22;15903;49.008;8.394;2023-02-28T14:58:05;8.00;76.30
28747;DHT22;15903;49.008;8.394;2023-02-28T15:00:40;8.00;76.50
28747;DHT22;15903;49.008;8.394;2023-02-28T15:03:22;7.90;76.10
28747;DHT22;15903;49.008;8.394;2023-02-28T15:05:54;7.80;76.00
28747;DHT22;15903;49.008;8.394;2023-02-28T15:08:20;7.80;76.10
28747;DHT22;15903;49.008;8.394;2023-02-28T15:11:12;7.70;76.00
28747;DHT22;15903;49.008;8.394;2023-02-28T15:13:47;7.80;75.70
28747;DHT22;15903;49.008;8.394;2023-02-28T15:23:53;7.90;76.40
28747;DHT22;15903;49.008;8.394;2023-02-28T15:26:22;7.80;75.80
28747;DHT22;15903;49.008;8.394;2023-02-28T15:28:54;7.80;75.60
28747;DHT22;15903;49.008;8.394;2023-02-28T15:31:34;7.70;76.30
28747;DHT22;15903;49.008;8.394;2023-02-28T15:34:05;7.70;74.90
28747;DHT22;15903;49.008;8.394;2023-02-28T15:36:34;7.60;75.70
28747;DHT22;15903;49.008;8.394;2023-02-28T15:39:16;7.50;75.70
28747;DHT22;15903;49.008;8.394;2023-02-28T15:41:43;7.50;75.40
28747;DHT22;15903;49.008;8.394;2023-02-28T15:44:27;7.40;75.20
28747;DHT22;15903;49.008;8.394;2023-02-28T15:47:04;7.40;75.60
28747;DHT22;15903;49.008;8.394;2023-02-28T15:49:39;7.30;76.00
28747;DHT22;15903;49.008;8.394;2023-02-28T15:52:05;7.30;76.10
28747;DHT22;15903;49.008;8.394;2023-02-28T15:54:33;7.30;76.80
28747;DHT22;15903;49.008;8.394;2023-02-28T15:57:21;7.30;77.00
28747;DHT22;15903;49.008;8.394;2023-02-28T15:59:55;7.30;76.90
28747;DHT22;15903;49.008;8.394;2023-02-28T16:02:30;7.20;77.20
28747;DHT22;15903;49.008;8.394;2023-02-28T16:07:34;7.10;77.00
28747;DHT22;15903;49.008;8.394;2023-02-28T16:10:00;7.10;77.10
28747;DHT22;15903;49.008;8.394;2023-02-28T16:12:31;7.00;77.80
28747;DHT22;15903;49.008;8.394;2023-02-28T16:14:59;7.00;78.10
28747;DHT22;15903;49.008;8.394;2023-02-28T16:17:30;7.00;78.30
28747;DHT22;15903;49.008;8.394;2023-02-28T16:19:56;7.00;77.90
28747;DHT22;15903;49.008;8.394;2023-02-28T16:22:23;6.90;78.20
28747;DHT22;15903;49.008;8.394;2023-02-28T16:24:48;6.90;78.60
28747;DHT22;15903;49.008;8.394;2023-02-28T16:27:21;6.90;78.60
28747;DHT22;15903;49.008;8.394;2023-02-28T16:29:50;6.80;78.60
28747;DHT22;15903;49.008;8.394;2023-02-28T16:32:16;6.70;78.30
28747;DHT22;15903;49.008;8.394;2023-02-28T16:34:43;6.70;78.70
28747;DHT22;15903;49.008;8.394;2023-02-28T16:37:14;6.70;79.60
28747;DHT22;15903;49.008;8.394;2023-02-28T16:39:42;6.70;79.70
28747;DHT22;15903;49.008;8.394;2023-02-28T16:42:15;6.60;79.60
28747;DHT22;15903;49.008;8.394;2023-02-28T16:44:41;6.60;79.90
28747;DHT22;15903;49.008;8.394;2023-02-28T16:47:10;6.50;79.70
28747;DHT22;15903;49.008;8.394;2023-02-28T16:49:36;6.50;79.70
28747;DHT22;15903;49.008;8.394;2023-02-28T16:52:01;6.40;79.90
28747;DHT22;15903;49.008;8.394;2023-02-28T16:54:27;6.40;79.60
28747;DHT22;15903;49.008;8.394;2023-02-28T16:56:53;6.30;80.10
28747;DHT22;15903;49.008;8.394;2023-02-28T16:59:22;6.20;80.30
28747;DHT22;15903;49.008;8.394;2023-02-28T17:01:49;6.20;80.30
28747;DHT22;15903;49.008;8.394;2023-02-28T17:04:15;6.20;80.20
28747;DHT22;15903;49.008;8.394;2023-02-28T17:06:41;6.20;80.40
28747;DHT22;15903;49.008;8.394;2023-02-28T17:09:16;6.10;81.00
28747;DHT22;15903;49.008;8.394;2023-02-28T17:11:42;6.10;81.40
28747;DHT22;15903;49.008;8.394;2023-02-28T17:14:08;6.10;80.80
28747;DHT22;15903;49.008;8.394;2023-02-28T17:16:35;6.10;81.20
28747;DHT22;15903;49.008;8.394;2023-02-28T17:19:04;6.00;81.50
28747;DHT22;15903;49.008;8.394;2023-02-28T17:21:31;6.00;82.20
28747;DHT22;15903;49.008;8.394;2023-02-28T17:23:57;6.00;82.00
28747;DHT22;15903;49.008;8.394;2023-02-28T17:26:23;5.90;82.20
28747;DHT22;15903;49.008;8.394;2023-02-28T17:28:53;5.90;82.50
28747;DHT22;15903;49.008;8.394;2023-02-28T17:31:21;5.80;82.40
28747;DHT22;15903;49.008;8.394;2023-02-28T17:33:47;5.80;82.60
28747;DHT22;15903;49.008;8.394;2023-02-28T17:36:15;5.80;83.00
28747;DHT22;15903;49.008;8.394;2023-02-28T17:38:41;5.70;83.20
28747;DHT22;15903;49.008;8.394;2023-02-28T17:41:10;5.70;83.30
28747;DHT22;15903;49.008;8.394;2023-02-28T17:43:36;5.70;83.20
28747;DHT22;15903;49.008;8.394;2023-02-28T17:46:02;5.70;83.10
28747;DHT22;15903;49.008;8.394;2023-02-28T17:48:30;5.60;83.30
28747;DHT22;15903;49.008;8.394;2023-02-28T17:50:56;5.60;83.50
28747;DHT22;15903;49.008;8.394;2023-02-28T17:53:22;5.60;83.60
28747;DHT22;15903;49.008;8.394;2023-02-28T17:55:51;5.60;83.30
28747;DHT22;15903;49.008;8.394;2023-02-28T17:58:17;5.60;83.70
28747;DHT22;15903;49.008;8.394;2023-02-28T18:00:44;5.50;83.80